Terminal Aerodrome Forecast
Issued by NWS Duluth, MN

Home | Current Version | Previous Version | Text Only | Print | Product List | Glossary On
Versions: 1 2 3 4 5 6 7 8 9 10 11 12 13 14 15 16 17 18 19 20 21
344
FTUS43 KDLH 261721
TAFDLH
TAF
KDLH 261721Z 2618/2718 23008KT P6SM SCT050
     FM270300 19004KT P6SM SCT120
     FM271400 15008KT P6SM SCT040 OVC100=

USA.gov is the U.S. government's official web portal to all federal, state and local government web resources and services.